Airfield :
LOGIN :

Register | Disclaimer

   EN    FR    IT 

 










Legend :    VFR   Marginal VFR   IFR   Intensive IFR   Very Intensive IFR
Visi :
Ceiling :
>= 8 km
>= 3000ft
5 to 8 km
1000 to 3000 ft
1500m to 5 km
500 to 1000 ft
800 to 1500m
200 to 500 ft
< 800m
< 200 ft
Symbols :   Thunderstorms  Fog  Heavy snow  Heavy precipitations  Wind > 20 kt
SIGMETs :     Misc.  Thunderstorms  Icing  Turbulence  Mountain Waves  Volcanic Ashes






- Airport Elevation : 359 ft
- IATA code : BVA


LFOB - Beauvais

CURRENT METAR :
  • 260500Z AUTO 11005KT CAVOK 14/13 Q1012 TEMPO 3000 SHRA BKN013 BKN020TCU BECMG 24010KT

EXPIRED METARs :
  • 260430Z AUTO 10006KT 9999 FEW045 SCT064 OVC088 14/13 Q1012 TEMPO 3000 SHRA BKN013 BKN020TCU BECMG 24010KT
  • 260400Z AUTO 17004KT 130V200 9999 -RA NSC 13/13 Q1013 TEMPO 3000 SHRA BKN013 BKN020TCU
  • 260330Z AUTO 11005KT 9999 ///TCU 14/12 Q1012 TEMPO 3000 SHRA BKN013 BKN020TCU
  • 260300Z AUTO 12004KT CAVOK 14/12 Q1013 TEMPO 3000 SHRA BKN013 BKN020TCU
  • 260230Z AUTO 12006KT CAVOK 14/12 Q1013 TEMPO 3000 SHRA BKN013 BKN020TCU
  • 260200Z AUTO 12009KT 9999 FEW048/// BKN096/// OVC120/// //////CB 14/12 Q1013 TEMPO 3000 SHRA BKN013 BKN020TCU
  • 260130Z AUTO 15005KT 110V200 9999 -RA FEW042/// SCT062/// BKN078/// ///CB 14/12 Q1014 TEMPO 3000 SHRA BKN013 BKN020TCU
  • 260100Z AUTO 13003KT 9999 FEW047/// SCT084/// OVC110/// ///CB 14/12 Q1014 TEMPO 3000 SHRA BKN013 BKN020TCU
  • 260030Z AUTO 10004KT 9999 //////CB 14/12 Q1014 TEMPO 3000 SHRA BKN013 BKN020TCU

TAF TAF LFOB
Valid from the 26 at 00:00 until the 27 at 00:00 UTC


252300Z 2600/2624 13005KT CAVOK
PROB40
TEMPO 2600/2606 3000 SHRA BKN013 BKN020TCU
BECMG 2606/2609 24010KT
TEMPO 2610/2620 3000 SHRA BKN013 BKN020CB
ATIS : +33 3 44 11 49 28



MET'MAP, your aeronautical weather chart ! - Copyright ORBIFLY December 2007 - Disclaimer

ORBIFLY MET'MAP TEAM :

Programming & Development : Alexandra Zaïnal
Original concept : Baudouin d'Aumeries
Technical & hardware support : Manuel Goepfert
Assistance : Marc-Olivier Méhu




SOURCES & CREDITS :

   NOAA